createdAt,value
2018-04-22T00:00:27.188Z,28.55
2018-04-22T00:02:54.455Z,30.83
2018-04-22T00:05:20.929Z,30.40
2018-04-22T00:07:48.123Z,29.90
2018-04-22T00:10:14.591Z,30.35
2018-04-22T00:12:41.119Z,30.67
2018-04-22T00:15:08.288Z,31.65
2018-04-22T00:17:34.850Z,31.75
2018-04-22T00:20:01.382Z,31.58
2018-04-22T00:22:27.826Z,32.95
2018-04-22T00:24:54.273Z,32.38
2018-04-22T00:27:20.741Z,32.38
2018-04-22T00:29:47.147Z,30.67
2018-04-22T00:32:14.220Z,30.90
2018-04-22T00:34:40.649Z,30.15
2018-04-22T00:37:07.807Z,31.17
2018-04-22T00:39:34.243Z,31.37
2018-04-22T00:42:00.679Z,33.63
2018-04-22T00:44:27.200Z,33.58
2018-04-22T00:46:54.161Z,33.75
2018-04-22T00:49:21.371Z,33.13
2018-04-22T00:51:47.796Z,33.72
2018-04-22T00:54:18.676Z,32.58
2018-04-22T00:56:45.113Z,32.08
2018-04-22T00:59:11.555Z,32.78
2018-04-22T01:01:38.751Z,33.75
2018-04-22T01:04:05.182Z,35.05
2018-04-22T01:06:32.335Z,32.80
2018-04-22T01:08:58.795Z,33.75
2018-04-22T01:11:25.461Z,33.08
2018-04-22T01:13:51.936Z,34.50
2018-04-22T01:16:19.111Z,33.20
2018-04-22T01:18:46.388Z,34.85
2018-04-22T01:21:12.847Z,33.45
2018-04-22T01:23:39.400Z,35.28
2018-04-22T01:26:06.579Z,34.75
2018-04-22T01:28:33.133Z,33.38
2018-04-22T01:31:00.408Z,33.95
2018-04-22T01:33:27.581Z,34.17
2018-04-22T01:35:54.820Z,36.85
2018-04-22T01:38:21.313Z,34.08
2018-04-22T01:40:48.511Z,34.75
2018-04-22T01:43:15.045Z,34.08
2018-04-22T01:45:42.200Z,34.25
2018-04-22T01:48:09.593Z,34.30
2018-04-22T01:50:36.761Z,33.80
2018-04-22T01:53:04.004Z,32.97
2018-04-22T01:55:30.397Z,33.45
2018-04-22T01:57:57.163Z,31.40
2018-04-22T02:00:23.715Z,34.22
2018-04-22T02:02:50.140Z,32.03
2018-04-22T02:05:16.574Z,32.55
2018-04-22T02:07:43.083Z,32.00
2018-04-22T02:10:10.255Z,32.53
2018-04-22T02:12:37.422Z,32.22
2018-04-22T02:15:04.588Z,32.22
2018-04-22T02:17:31.874Z,31.30
2018-04-22T02:19:59.044Z,32.25
2018-04-22T02:22:26.270Z,31.15
2018-04-22T02:24:52.778Z,31.45
2018-04-22T02:27:19.240Z,31.70
2018-04-22T02:29:45.791Z,30.98
2018-04-22T02:32:13.547Z,31.00
2018-04-22T02:34:40.722Z,29.73
2018-04-22T02:37:07.963Z,31.87
2018-04-22T02:39:34.479Z,30.58
2018-04-22T02:42:01.663Z,31.65
2018-04-22T02:44:28.057Z,29.20
2018-04-22T02:46:54.507Z,29.80
2018-04-22T02:49:21.024Z,30.92
2018-04-22T02:51:48.757Z,29.90
2018-04-22T02:54:15.250Z,30.00
2018-04-22T02:56:42.534Z,30.50
2018-04-22T02:59:09.810Z,30.00
2018-04-22T03:01:36.966Z,29.17
2018-04-22T03:04:04.259Z,27.40
2018-04-22T03:06:30.704Z,27.60
2018-04-22T03:08:57.868Z,27.00
2018-04-22T03:11:25.181Z,25.65
2018-04-22T03:13:51.626Z,24.83
2018-04-22T03:16:18.038Z,24.40
2018-04-22T03:18:44.464Z,23.55
2018-04-22T03:21:10.919Z,22.90
2018-04-22T03:23:37.357Z,23.25
2018-04-22T03:26:03.793Z,24.10
2018-04-22T03:28:31.068Z,24.83
2018-04-22T03:30:58.741Z,24.25
2018-04-22T03:33:25.919Z,23.90
2018-04-22T03:35:53.072Z,23.83
2018-04-22T03:38:19.493Z,23.15
2018-04-22T03:40:46.553Z,22.30
2018-04-22T03:43:12.985Z,22.25
2018-04-22T03:45:39.432Z,21.70
2018-04-22T03:48:06.607Z,22.02
2018-04-22T03:50:33.787Z,21.90
2018-04-22T03:53:00.338Z,21.30
2018-04-22T03:55:27.530Z,20.95
2018-04-22T03:57:54.707Z,21.30
2018-04-22T04:00:21.142Z,20.05
2018-04-22T04:02:47.572Z,20.35
2018-04-22T04:05:14.719Z,20.12
2018-04-22T04:07:41.171Z,20.85
2018-04-22T04:10:07.651Z,20.80
2018-04-22T04:12:34.076Z,21.48
2018-04-22T04:15:00.525Z,19.77
2018-04-22T04:17:26.951Z,21.05
2018-04-22T04:20:06.393Z,20.27
2018-04-22T04:22:48.892Z,21.35
2018-04-22T04:25:37.042Z,22.23
2018-04-22T04:28:04.218Z,21.30
2018-04-22T04:30:31.492Z,22.65
2018-04-22T04:32:57.940Z,21.25
2018-04-22T04:35:25.098Z,20.62
2018-04-22T04:37:51.582Z,21.60
2018-04-22T04:40:18.134Z,21.52
2018-04-22T04:42:45.342Z,19.95
2018-04-22T04:45:11.846Z,21.58
2018-04-22T04:47:38.270Z,21.15
2018-04-22T04:50:04.682Z,22.37
2018-04-22T04:52:31.121Z,22.17
2018-04-22T04:54:58.338Z,19.95
2018-04-22T04:57:24.755Z,23.40
2018-04-22T04:59:51.223Z,23.05
2018-04-22T05:02:18.278Z,22.15
2018-04-22T05:04:45.527Z,21.05
2018-04-22T05:07:11.973Z,20.50
2018-04-22T05:09:38.383Z,20.85
2018-04-22T05:12:04.818Z,18.60
2018-04-22T05:14:31.343Z,19.00
2018-04-22T05:16:57.770Z,18.15
2018-04-22T05:19:24.183Z,17.67
2018-04-22T05:21:51.470Z,17.60
2018-04-22T05:24:17.942Z,17.40
2018-04-22T05:26:44.444Z,16.60
2018-04-22T05:29:10.944Z,18.30
2018-04-22T05:31:38.216Z,20.08
2018-04-22T05:34:04.779Z,17.00
2018-04-22T05:36:31.195Z,18.67
2018-04-22T05:38:57.654Z,17.43
2018-04-22T05:41:24.078Z,18.90
2018-04-22T05:43:50.601Z,17.90
2018-04-22T05:46:17.160Z,19.00
2018-04-22T05:48:44.435Z,20.10
2018-04-22T05:51:10.863Z,18.67
2018-04-22T05:53:37.779Z,18.93
2018-04-22T05:56:04.211Z,18.87
2018-04-22T05:58:31.390Z,19.67
2018-04-22T06:00:57.893Z,19.60
2018-04-22T06:03:24.403Z,19.30
2018-04-22T06:05:51.513Z,20.37
2018-04-22T06:08:18.030Z,20.03
2018-04-22T06:10:45.507Z,19.70
2018-04-22T06:13:11.994Z,19.10
2018-04-22T06:15:38.522Z,19.10
2018-04-22T06:18:05.692Z,17.93
2018-04-22T06:20:32.970Z,19.20
2018-04-22T06:22:59.532Z,18.40
2018-04-22T06:25:26.012Z,18.17
2018-04-22T06:27:52.443Z,18.77
2018-04-22T06:30:19.634Z,18.87
2018-04-22T06:32:46.081Z,18.77
2018-04-22T06:35:12.531Z,18.77
2018-04-22T06:37:39.084Z,18.37
2018-04-22T06:40:06.466Z,19.37
2018-04-22T06:42:33.023Z,18.13
2018-04-22T06:45:00.162Z,18.93
2018-04-22T06:47:26.606Z,17.73
2018-04-22T06:49:53.208Z,17.63
2018-04-22T06:52:20.402Z,19.03
2018-04-22T06:54:46.857Z,19.12
2018-04-22T06:57:13.265Z,19.25
2018-04-22T06:59:39.851Z,18.67
2018-04-22T07:02:07.107Z,19.03
2018-04-22T07:04:34.301Z,17.60
2018-04-22T07:07:01.574Z,17.67
2018-04-22T07:09:28.033Z,17.60
2018-04-22T07:11:55.305Z,17.13
2018-04-22T07:14:22.496Z,16.60
2018-04-22T07:16:48.989Z,16.63
2018-04-22T07:19:15.450Z,17.57
2018-04-22T07:21:42.024Z,17.33
2018-04-22T07:24:09.188Z,16.90
2018-04-22T07:26:35.727Z,16.87
2018-04-22T07:29:02.215Z,16.20
2018-04-22T07:31:29.512Z,17.30
2018-04-22T07:33:56.786Z,16.53
2018-04-22T07:36:24.060Z,17.23
2018-04-22T07:38:51.208Z,16.73
2018-04-22T07:41:17.649Z,15.97
2018-04-22T07:43:44.147Z,16.53
2018-04-22T07:46:11.296Z,16.67
2018-04-22T07:48:37.831Z,16.30
2018-04-22T07:51:04.419Z,16.43
2018-04-22T07:53:31.640Z,16.50
2018-04-22T07:55:58.268Z,18.07
2018-04-22T07:58:25.425Z,16.23
2018-04-22T08:00:52.592Z,16.47
2018-04-22T08:03:19.046Z,16.87
2018-04-22T08:05:45.979Z,17.63
2018-04-22T08:08:12.492Z,18.63
2018-04-22T08:10:39.657Z,16.73
2018-04-22T08:13:06.850Z,16.67
2018-04-22T08:15:33.361Z,16.90
2018-04-22T08:17:59.792Z,16.63
2018-04-22T08:20:26.233Z,16.70
2018-04-22T08:22:53.258Z,16.33
2018-04-22T08:25:19.742Z,16.27
2018-04-22T08:27:46.222Z,17.67
2018-04-22T08:30:12.674Z,16.80
2018-04-22T08:32:39.177Z,17.07
2018-04-22T08:35:05.762Z,16.20
2018-04-22T08:37:32.868Z,16.80
2018-04-22T08:39:59.312Z,15.77
2018-04-22T08:42:25.849Z,17.60
2018-04-22T08:44:52.411Z,17.53
2018-04-22T08:47:18.927Z,17.60
2018-04-22T08:49:45.421Z,18.70
2018-04-22T08:52:12.614Z,16.47
2018-04-22T08:54:39.153Z,15.97
2018-04-22T08:57:06.428Z,17.63
2018-04-22T08:59:33.701Z,18.03
2018-04-22T09:02:01.581Z,18.50
2018-04-22T09:04:28.864Z,17.63
2018-04-22T09:06:56.051Z,16.77
2018-04-22T09:09:22.702Z,17.13
2018-04-22T09:11:49.762Z,18.10
2018-04-22T09:14:16.327Z,17.23
2018-04-22T09:16:43.454Z,15.97
2018-04-22T09:19:10.670Z,16.80
2018-04-22T09:21:37.843Z,17.70
2018-04-22T09:24:05.118Z,17.57
2018-04-22T09:26:32.260Z,17.23
2018-04-22T09:28:58.853Z,16.40
2018-04-22T09:31:25.405Z,17.73
2018-04-22T09:33:52.562Z,17.30
2018-04-22T09:36:19.857Z,16.43
2018-04-22T09:38:46.272Z,15.47
2018-04-22T09:41:12.751Z,17.30
2018-04-22T09:43:40.041Z,16.17
2018-04-22T09:46:07.315Z,16.23
2018-04-22T09:48:34.531Z,14.53
2018-04-22T09:51:00.967Z,16.47
2018-04-22T09:53:27.564Z,17.40
2018-04-22T09:55:54.062Z,15.90
2018-04-22T09:58:21.289Z,15.00
2018-04-22T10:00:47.747Z,15.47
2018-04-22T10:03:14.242Z,14.67
2018-04-22T10:05:49.263Z,15.77
2018-04-22T10:08:16.457Z,14.50
2018-04-22T10:10:43.745Z,14.20
2018-04-22T10:13:10.978Z,13.97
2018-04-22T10:15:37.392Z,13.00
2018-04-22T10:18:04.017Z,13.23
2018-04-22T10:20:30.908Z,12.63
2018-04-22T10:22:57.384Z,11.20
2018-04-22T10:25:24.422Z,10.90
2018-04-22T10:27:51.597Z,11.80
2018-04-22T10:30:18.045Z,12.17
2018-04-22T10:32:46.969Z,13.17
2018-04-22T10:35:13.418Z,11.70
2018-04-22T10:37:40.660Z,11.33
2018-04-22T10:40:08.515Z,11.87
2018-04-22T10:42:35.956Z,11.13
2018-04-22T10:45:02.827Z,9.97
2018-04-22T10:47:29.285Z,10.33
2018-04-22T10:49:56.351Z,10.60
2018-04-22T10:52:23.117Z,8.53
2018-04-22T10:54:49.676Z,9.37
2018-04-22T10:57:19.255Z,7.83
2018-04-22T10:59:46.821Z,6.10
2018-04-22T11:02:14.542Z,7.63
2018-04-22T11:04:43.577Z,6.37
2018-04-22T11:07:10.137Z,7.60
2018-04-22T11:09:37.782Z,7.00
2018-04-22T11:12:07.307Z,6.73
2018-04-22T11:14:35.644Z,6.37
2018-04-22T11:17:02.507Z,5.93
2018-04-22T11:19:30.977Z,6.90
2018-04-22T11:21:58.698Z,6.07
2018-04-22T11:24:26.279Z,7.43
2018-04-22T11:26:52.936Z,6.10
2018-04-22T11:29:19.491Z,7.50
2018-04-22T11:31:46.870Z,6.90
2018-04-22T11:34:13.531Z,7.10
2018-04-22T11:36:40.860Z,6.23
2018-04-22T11:39:07.344Z,7.50
2018-04-22T11:41:33.773Z,8.27
2018-04-22T11:44:00.200Z,7.30
2018-04-22T11:46:26.668Z,7.63
2018-04-22T11:48:53.180Z,6.73
2018-04-22T11:51:20.350Z,6.73
2018-04-22T11:53:47.941Z,8.37
2018-04-22T11:56:14.501Z,7.30
2018-04-22T11:58:41.657Z,8.93
2018-04-22T12:01:08.908Z,7.70
2018-04-22T12:03:35.308Z,8.80
2018-04-22T12:06:01.794Z,8.70
2018-04-22T12:08:28.220Z,8.13
2018-04-22T12:10:54.774Z,9.17
2018-04-22T12:13:21.984Z,8.47
2018-04-22T12:15:48.417Z,9.77
2018-04-22T12:18:15.072Z,10.00
2018-04-22T12:20:41.734Z,9.00
2018-04-22T12:23:08.285Z,8.80
2018-04-22T12:25:34.842Z,9.20
2018-04-22T12:28:02.123Z,9.10
2018-04-22T12:30:28.601Z,8.80
2018-04-22T12:32:55.133Z,8.63
2018-04-22T12:35:22.406Z,8.97
2018-04-22T12:37:49.790Z,7.90
2018-04-22T12:40:17.059Z,8.97
2018-04-22T12:42:43.821Z,8.60
2018-04-22T12:45:11.053Z,9.30
2018-04-22T12:47:37.576Z,11.20
2018-04-22T12:50:05.444Z,9.13
2018-04-22T12:52:32.105Z,9.40
2018-04-22T12:54:58.687Z,9.20
2018-04-22T12:57:25.320Z,8.63
2018-04-22T12:59:52.704Z,9.07
2018-04-22T13:02:19.208Z,8.50
2018-04-22T13:04:45.673Z,8.80
2018-04-22T13:07:12.165Z,9.33
2018-04-22T13:09:39.445Z,9.27
2018-04-22T13:12:06.004Z,9.00
2018-04-22T13:14:32.501Z,8.80
2018-04-22T13:16:59.036Z,8.77
2018-04-22T13:19:25.712Z,8.30
2018-04-22T13:21:52.187Z,8.47
2018-04-22T13:24:18.632Z,9.03
2018-04-22T13:26:46.072Z,9.53
2018-04-22T13:29:12.501Z,8.80
2018-04-22T13:31:39.815Z,8.87
2018-04-22T13:34:06.362Z,10.10
2018-04-22T13:36:33.631Z,10.20
2018-04-22T13:39:00.949Z,9.50
2018-04-22T13:41:27.411Z,8.90
2018-04-22T13:43:53.898Z,8.80
2018-04-22T13:46:20.936Z,9.37
2018-04-22T13:48:47.436Z,9.30
2018-04-22T13:51:14.832Z,8.90
2018-04-22T13:53:41.390Z,9.00
2018-04-22T13:56:07.836Z,8.87
2018-04-22T13:58:35.054Z,8.67
2018-04-22T14:01:01.680Z,9.17
2018-04-22T14:03:28.357Z,9.30
2018-04-22T14:05:54.997Z,10.40
2018-04-22T14:08:21.658Z,9.47
2018-04-22T14:10:49.034Z,9.60
2018-04-22T14:13:16.413Z,9.87
2018-04-22T14:15:43.688Z,9.83
2018-04-22T14:18:10.348Z,9.13
2018-04-22T14:20:36.884Z,9.00
2018-04-22T14:23:03.302Z,9.43
2018-04-22T14:25:29.813Z,9.50
2018-04-22T14:27:56.961Z,8.40
2018-04-22T14:30:23.359Z,9.73
2018-04-22T14:32:49.900Z,14.80
2018-04-22T14:35:17.091Z,8.13
2018-04-22T14:37:43.511Z,9.70
2018-04-22T14:40:09.952Z,8.97
2018-04-22T14:42:37.840Z,9.20
2018-04-22T14:45:16.602Z,9.70
2018-04-22T14:47:43.772Z,9.63
2018-04-22T14:50:10.986Z,9.97
2018-04-22T14:52:37.507Z,9.90
2018-04-22T14:55:04.884Z,9.17
2018-04-22T14:57:31.344Z,9.30
2018-04-22T14:59:57.898Z,10.20
2018-04-22T15:02:25.077Z,9.60
2018-04-22T15:04:51.631Z,9.60
2018-04-22T15:07:18.863Z,9.60
2018-04-22T15:09:45.325Z,11.47
2018-04-22T15:12:12.474Z,9.83
2018-04-22T15:14:38.990Z,9.00
2018-04-22T15:17:05.511Z,8.60
2018-04-22T15:19:31.968Z,9.07
2018-04-22T15:21:59.893Z,9.00
2018-04-22T15:24:26.298Z,8.53
2018-04-22T15:26:52.887Z,8.50
2018-04-22T15:29:20.069Z,9.33
2018-04-22T15:31:47.261Z,8.73
2018-04-22T15:34:13.813Z,9.80
2018-04-22T15:36:41.188Z,9.20
2018-04-22T15:39:08.508Z,9.20
2018-04-22T15:41:35.577Z,8.93
2018-04-22T15:44:02.148Z,8.47
2018-04-22T15:46:28.728Z,9.23
2018-04-22T15:48:56.646Z,9.33
2018-04-22T15:51:23.096Z,8.83
2018-04-22T15:53:50.301Z,8.60
2018-04-22T15:56:17.279Z,8.20
2018-04-22T15:58:43.797Z,9.27
2018-04-22T16:01:10.323Z,9.50
2018-04-22T16:03:37.540Z,9.80
2018-04-22T16:06:04.149Z,9.73
2018-04-22T16:08:31.462Z,9.43
2018-04-22T16:10:58.121Z,9.00
2018-04-22T16:13:25.298Z,10.40
2018-04-22T16:15:51.787Z,9.20
2018-04-22T16:18:18.222Z,9.70
2018-04-22T16:20:44.667Z,9.60
2018-04-22T16:23:11.100Z,9.77
2018-04-22T16:25:38.322Z,9.47
2018-04-22T16:28:04.794Z,8.53
2018-04-22T16:30:31.306Z,9.20
2018-04-22T16:32:57.790Z,8.87
2018-04-22T16:35:24.852Z,8.20
2018-04-22T16:37:51.496Z,8.33
2018-04-22T16:40:18.655Z,9.43
2018-04-22T16:42:45.941Z,9.03
2018-04-22T16:45:12.417Z,9.70
2018-04-22T16:47:38.835Z,12.63
2018-04-22T16:50:05.315Z,11.10
2018-04-22T16:52:31.789Z,28.17
2018-04-22T16:54:58.227Z,35.23
2018-04-22T16:57:24.664Z,36.17
2018-04-22T16:59:51.892Z,33.87
2018-04-22T17:02:18.354Z,23.50
2018-04-22T17:04:44.816Z,26.77
2018-04-22T17:07:12.706Z,20.67
2018-04-22T17:09:39.107Z,24.53
2018-04-22T17:12:06.356Z,13.10
2018-04-22T17:14:32.792Z,9.70
2018-04-22T17:16:59.242Z,10.20
2018-04-22T17:19:25.752Z,11.40
2018-04-22T17:21:52.215Z,12.70
2018-04-22T17:24:18.832Z,13.93
2018-04-22T17:26:45.298Z,17.53
2018-04-22T17:29:11.840Z,13.87
2018-04-22T17:31:38.444Z,10.70
2018-04-22T17:34:06.332Z,11.17
2018-04-22T17:36:32.868Z,11.43
2018-04-22T17:38:59.309Z,10.23
2018-04-22T17:41:25.907Z,10.10
2018-04-22T17:43:52.397Z,10.10
2018-04-22T17:46:18.843Z,12.10
2018-04-22T17:48:45.303Z,11.37
2018-04-22T17:51:12.756Z,10.10
2018-04-22T17:53:39.412Z,10.57
2018-04-22T17:56:06.791Z,10.10
2018-04-22T17:58:34.700Z,9.90
2018-04-22T18:01:01.343Z,10.20
2018-04-22T18:03:27.783Z,10.50
2018-04-22T18:05:54.966Z,10.80
2018-04-22T18:08:22.155Z,11.30
2018-04-22T18:10:48.764Z,10.40
2018-04-22T18:13:18.174Z,11.13
2018-04-22T18:15:44.627Z,11.90
2018-04-22T18:18:11.443Z,10.87
2018-04-22T18:20:38.098Z,11.90
2018-04-22T18:23:05.891Z,11.50
2018-04-22T18:25:32.759Z,12.37
2018-04-22T18:27:59.725Z,13.00
2018-04-22T18:30:26.221Z,13.67
2018-04-22T18:32:53.451Z,12.60
2018-04-22T18:35:21.428Z,14.13
2018-04-22T18:37:49.768Z,13.80
2018-04-22T18:40:17.042Z,13.10
2018-04-22T18:42:44.089Z,14.50
2018-04-22T18:45:10.617Z,14.50
2018-04-22T18:47:37.203Z,14.50
2018-04-22T18:50:03.762Z,14.83
2018-04-22T18:52:30.315Z,15.60
2018-04-22T18:54:57.676Z,14.83
2018-04-22T18:57:26.199Z,15.57
2018-04-22T18:59:54.808Z,15.70
2018-04-22T19:02:21.567Z,15.93
2018-04-22T19:04:49.866Z,16.00
2018-04-22T19:07:18.625Z,16.20
2018-04-22T19:09:47.137Z,15.17
2018-04-22T19:12:13.909Z,16.90
2018-04-22T19:14:41.521Z,16.23
2018-04-22T19:17:09.777Z,28.00
2018-04-22T19:19:36.385Z,40.97
2018-04-22T19:22:03.460Z,26.13
2018-04-22T19:24:32.368Z,22.63
2018-04-22T19:26:59.938Z,18.98
2018-04-22T19:29:26.498Z,19.67
2018-04-22T19:31:53.651Z,19.07
2018-04-22T19:34:21.093Z,17.73
2018-04-22T19:36:47.808Z,17.00
2018-04-22T19:39:14.579Z,18.15
2018-04-22T19:41:43.457Z,17.20
2018-04-22T19:44:10.041Z,19.37
2018-04-22T19:46:36.598Z,18.73
2018-04-22T19:49:03.365Z,18.37
2018-04-22T19:51:31.149Z,17.73
2018-04-22T19:53:59.548Z,18.05
2018-04-22T19:56:27.128Z,17.20
2018-04-22T19:58:53.557Z,18.77
2018-04-22T20:01:20.144Z,18.02
2018-04-22T20:03:46.700Z,18.05
2018-04-22T20:06:13.261Z,17.50
2018-04-22T20:08:40.346Z,17.10
2018-04-22T20:11:07.302Z,17.83
2018-04-22T20:13:35.384Z,17.73
2018-04-22T20:16:02.452Z,16.73
2018-04-22T20:18:28.905Z,17.37
2018-04-22T20:20:56.846Z,18.12
2018-04-22T20:23:23.572Z,17.48
2018-04-22T20:25:51.660Z,17.90
2018-04-22T20:28:18.124Z,18.20
2018-04-22T20:30:44.571Z,18.45
2018-04-22T20:33:11.952Z,17.90
2018-04-22T20:35:39.332Z,17.33
2018-04-22T20:38:05.915Z,17.77
2018-04-22T20:40:32.450Z,18.20
2018-04-22T20:42:58.899Z,17.12
2018-04-22T20:45:25.363Z,18.33
2018-04-22T20:47:51.919Z,17.90
2018-04-22T20:50:18.379Z,17.70
2018-04-22T20:52:44.819Z,19.50
2018-04-22T20:55:12.003Z,18.92
2018-04-22T20:57:38.560Z,18.45
2018-04-22T21:00:05.837Z,19.17
2018-04-22T21:02:32.269Z,19.00
2018-04-22T21:04:59.418Z,19.05
2018-04-22T21:07:25.835Z,18.58
2018-04-22T21:09:52.480Z,18.50
2018-04-22T21:12:18.882Z,18.87
2018-04-22T21:14:45.337Z,18.70
2018-04-22T21:17:11.851Z,19.98
2018-04-22T21:19:38.306Z,18.87
2018-04-22T21:22:05.516Z,18.85
2018-04-22T21:24:32.036Z,18.87
2018-04-22T21:26:58.450Z,19.55
2018-04-22T21:29:24.917Z,19.77
2018-04-22T21:31:51.640Z,19.77
2018-04-22T21:34:18.173Z,19.05
2018-04-22T21:36:44.614Z,18.42
2018-04-22T21:39:11.797Z,18.60
2018-04-22T21:41:38.964Z,17.58
2018-04-22T21:44:06.122Z,17.58
2018-04-22T21:46:33.422Z,18.25
2018-04-22T21:48:59.839Z,16.45
2018-04-22T21:51:26.317Z,14.90
2018-04-22T21:53:53.499Z,16.12
2018-04-22T21:56:20.664Z,16.00
2018-04-22T21:58:47.947Z,16.30
2018-04-22T22:01:15.120Z,15.65
2018-04-22T22:03:42.321Z,15.40
2018-04-22T22:06:08.798Z,17.80
2018-04-22T22:08:35.263Z,15.05
2018-04-22T22:11:01.765Z,15.20
2018-04-22T22:13:28.223Z,16.85
2018-04-22T22:15:54.633Z,18.08
2018-04-22T22:18:21.041Z,17.33
2018-04-22T22:20:47.468Z,16.48
2018-04-22T22:23:14.661Z,16.87
2018-04-22T22:25:41.124Z,16.90
2018-04-22T22:28:07.579Z,18.70
2018-04-22T22:30:34.046Z,17.83
2018-04-22T22:33:00.588Z,18.35
2018-04-22T22:35:27.020Z,18.50
2018-04-22T22:37:53.499Z,17.95
2018-04-22T22:40:20.774Z,17.98
2018-04-22T22:42:47.212Z,17.50
2018-04-22T22:45:14.397Z,16.90
2018-04-22T22:47:41.587Z,17.27
2018-04-22T22:50:08.005Z,18.48
2018-04-22T22:52:34.432Z,17.48
2018-04-22T22:55:00.849Z,17.17
2018-04-22T22:57:27.252Z,18.33
2018-04-22T22:59:53.671Z,18.00
2018-04-22T23:02:20.094Z,16.98
2018-04-22T23:04:47.382Z,17.67
2018-04-22T23:07:13.833Z,16.77
2018-04-22T23:09:40.988Z,17.92
2018-04-22T23:12:07.470Z,16.40
2018-04-22T23:14:34.026Z,16.62
2018-04-22T23:17:00.474Z,17.25
2018-04-22T23:19:27.654Z,16.48
2018-04-22T23:21:54.790Z,16.70
2018-04-22T23:24:21.288Z,16.85
2018-04-22T23:26:47.736Z,16.70
2018-04-22T23:29:15.015Z,16.50
2018-04-22T23:31:41.452Z,18.62
2018-04-22T23:34:07.866Z,16.50
2018-04-22T23:36:34.353Z,17.80
2018-04-22T23:39:00.774Z,17.48
2018-04-22T23:41:27.191Z,16.50
2018-04-22T23:43:54.365Z,16.27
2018-04-22T23:46:21.532Z,16.25
2018-04-22T23:48:48.701Z,15.88
2018-04-22T23:51:15.888Z,15.30
2018-04-22T23:53:42.310Z,16.17
2018-04-22T23:56:08.736Z,14.57
2018-04-22T23:58:35.186Z,15.02
